Time;durP1;ratioP1;P1;durP2;ratioP2;P2;SDS_P1;SDS_P2;PMS_P1;PMS_P2;Temp;Humidity;BMP_temperature;BMP_pressure;BME280_temperature;BME280_humidity;BME280_pressure;Samples;Min_cycle;Max_cycle;Signal;HPM_P1;HPM_P2
2022/10/27 00:01:43;;;;;;;;;;;;;;;;;;5096729;28;19912;-86
2022/10/27 00:04:09;;;;;;;;;;;;;;;;;;5096332;28;19969;-91
2022/10/27 00:06:34;;;;;;;;;;;;;;;;;;5095580;28;19998;-88
2022/10/27 00:09:00;;;;;;;;;;;;;;;;;;5095753;28;19912;-89
2022/10/27 00:11:25;;;;;;;;;;;;;;;;;;5096217;28;20291;-91
2022/10/27 00:13:50;;;;;;;;;;;;;;;;;;5095233;28;20450;-86
2022/10/27 00:16:16;;;;;;;;;;;;;;;;;;5094196;28;19912;-89
2022/10/27 00:18:42;;;;;;;;;;;;;;;;;;5097022;28;19995;-86
2022/10/27 00:21:10;;;;;;;;;;;;;;;;;;5095491;28;19966;-89
2022/10/27 00:23:36;;;;;;;;;;;;;;;;;;5096366;28;19927;-87
2022/10/27 00:26:02;;;;;;;;;;;;;;;;;;5093340;28;20015;-89
2022/10/27 00:28:28;;;;;;;;;;;;;;;;;;5095027;28;20339;-89
2022/10/27 00:30:58;;;;;;;;;;;;;;;;;;5096900;28;20002;-87
2022/10/27 00:33:23;;;;;;;;;;;;;;;;;;5097101;28;20015;-87
2022/10/27 00:35:48;;;;;;;;;;;;;;;;;;5096854;28;19964;-85
2022/10/27 00:38:14;;;;;;;;;;;;;;;;;;5096883;28;19916;-89
2022/10/27 00:40:39;;;;;;;;;;;;;;;;;;5096665;28;20429;-85
2022/10/27 00:43:24;;;;;;;;;;;;;;;;;;5096659;28;19916;-85
2022/10/27 00:45:49;;;;;;;;;;;;;;;;;;5096486;28;19961;-82
2022/10/27 00:48:14;;;;;;;;;;;;;;;;;;5096669;28;19916;-83
2022/10/27 00:50:40;;;;;;;;;;;;;;;;;;5096690;28;19971;-83
2022/10/27 00:53:05;;;;;;;;;;;;;;;;;;5096418;28;20028;-87
2022/10/27 00:55:32;;;;;;;;;;;;;;;;;;5096469;28;20477;-89
2022/10/27 00:58:04;;;;;;;;;;;;;;;;;;5096433;28;19957;-88
2022/10/27 01:00:29;;;;;;;;;;;;;;;;;;5095205;28;19985;-84
2022/10/27 01:02:55;;;;;;;;;;;;;;;;;;5095056;28;20264;-88
2022/10/27 01:05:24;;;;;;;;;;;;;;;;;;5096438;28;19916;-90
2022/10/27 01:07:51;;;;;;;;;;;;;;;;;;5096210;28;20383;-88
2022/10/27 01:10:17;;;;;;;;;;;;;;;;;;5094896;28;20024;-86
2022/10/27 01:12:43;;;;;;;;;;;;;;;;;;5094813;28;19963;-88
2022/10/27 01:15:09;;;;;;;;;;;;;;;;;;5095766;28;19923;-86
2022/10/27 01:17:39;;;;;;;;;;;;;;;;;;5097617;28;19916;-90
2022/10/27 01:20:14;;;;;;;;;;;;;;;;;;5095178;28;19922;-88
2022/10/27 01:22:39;;;;;;;;;;;;;;;;;;5096138;28;19958;-88
2022/10/27 01:25:23;;;;;;;;;;;;;;;;;;5095818;28;19952;-89
2022/10/27 01:27:51;;;;;;;;;;;;;;;;;;5095872;28;20278;-89
2022/10/27 01:30:19;;;;;;;;;;;;;;;;;;5095693;28;19917;-85
2022/10/27 01:32:44;;;;;;;;;;;;;;;;;;5095909;28;19920;-88
2022/10/27 01:35:16;;;;;;;;;;;;;;;;;;5096026;28;19922;-89
2022/10/27 01:37:45;;;;;;;;;;;;;;;;;;5095662;28;20424;-89
2022/10/27 01:40:15;;;;;;;;;;;;;;;;;;5094165;28;19916;-88
2022/10/27 01:42:50;;;;;;;;;;;;;;;;;;5095637;28;19916;-89
2022/10/27 01:45:27;;;;;;;;;;;;;;;;;;5095460;28;20299;-87
2022/10/27 01:47:54;;;;;;;;;;;;;;;;;;5095426;28;19916;-87
2022/10/27 01:50:24;;;;;;;;;;;;;;;;;;5094528;28;20321;-88
2022/10/27 01:52:50;;;;;;;;;;;;;;;;;;5095808;28;19926;-90
2022/10/27 01:55:29;;;;;;;;;;;;;;;;;;5094189;28;19920;-87
2022/10/27 01:57:54;;;;;;;;;;;;;;;;;;5095497;28;19961;-87
2022/10/27 02:00:20;;;;;;;;;;;;;;;;;;5095300;28;19920;-90
2022/10/27 02:02:47;;;;;;;;;;;;;;;;;;5095235;28;20349;-88
2022/10/27 02:05:12;;;;;;;;;;;;;;;;;;5095046;28;19920;-90
2022/10/27 02:08:01;;;;;;;;;;;;;;;;;;5095251;28;19916;-85
2022/10/27 02:10:30;;;;;;;;;;;;;;;;;;5092008;28;20367;-86
2022/10/27 02:12:56;;;;;;;;;;;;;;;;;;5095053;28;19920;-90
2022/10/27 02:15:31;;;;;;;;;;;;;;;;;;5094870;28;19912;-88
2022/10/27 02:17:59;;;;;;;;;;;;;;;;;;5093545;28;20001;-90
2022/10/27 02:20:28;;;;;;;;;;;;;;;;;;5094996;28;19912;-87
2022/10/27 02:22:55;;;;;;;;;;;;;;;;;;5093650;28;19923;-89
2022/10/27 02:25:22;;;;;;;;;;;;;;;;;;5094857;28;19916;-87
2022/10/27 02:27:48;;;;;;;;;;;;;;;;;;5093421;28;19920;-88
2022/10/27 02:30:14;;;;;;;;;;;;;;;;;;5093287;28;19912;-86
2022/10/27 02:32:40;;;;;;;;;;;;;;;;;;5094627;28;19969;-88
2022/10/27 02:35:07;;;;;;;;;;;;;;;;;;5094669;28;19920;-91
2022/10/27 02:37:36;;;;;;;;;;;;;;;;;;5094749;28;19916;-90
2022/10/27 02:40:02;;;;;;;;;;;;;;;;;;5094557;28;19998;-90
2022/10/27 02:42:28;;;;;;;;;;;;;;;;;;5094487;28;20378;-88
2022/10/27 02:44:53;;;;;;;;;;;;;;;;;;5094490;28;19998;-89
2022/10/27 02:47:19;;;;;;;;;;;;;;;;;;5093431;28;19923;-90
2022/10/27 02:49:44;;;;;;;;;;;;;;;;;;5094443;28;19912;-90
2022/10/27 02:52:10;;;;;;;;;;;;;;;;;;5094096;28;19916;-86
2022/10/27 02:54:35;;;;;;;;;;;;;;;;;;5097742;28;19939;-88
2022/10/27 02:57:01;;;;;;;;;;;;;;;;;;5096535;28;19916;-89
2022/10/27 02:59:26;;;;;;;;;;;;;;;;;;5093720;28;19945;-88
2022/10/27 03:01:52;;;;;;;;;;;;;;;;;;5093908;28;19970;-89
2022/10/27 03:04:17;;;;;;;;;;;;;;;;;;5083079;28;19925;-85
2022/10/27 03:06:42;;;;;;;;;;;;;;;;;;5076467;28;20356;-91
2022/10/27 03:09:08;;;;;;;;;;;;;;;;;;5095810;28;19916;-89
2022/10/27 03:11:33;;;;;;;;;;;;;;;;;;5101218;28;19916;-87
2022/10/27 03:13:59;;;;;;;;;;;;;;;;;;5102248;28;20020;-85
2022/10/27 03:16:24;;;;;;;;;;;;;;;;;;5081899;28;19924;-88
2022/10/27 03:18:50;;;;;;;;;;;;;;;;;;5109003;28;19944;-86
2022/10/27 03:21:15;;;;;;;;;;;;;;;;;;5110147;28;20559;-89
2022/10/27 03:23:40;;;;;;;;;;;;;;;;;;5084680;28;19920;-90
2022/10/27 03:26:06;;;;;;;;;;;;;;;;;;5096075;28;19916;-86
2022/10/27 03:28:34;;;;;;;;;;;;;;;;;;5097868;28;19917;-84
2022/10/27 03:31:06;;;;;;;;;;;;;;;;;;5098918;28;19966;-87
2022/10/27 03:33:31;;;;;;;;;;;;;;;;;;5099836;28;19916;-90
2022/10/27 03:35:57;;;;;;;;;;;;;;;;;;5099617;28;20011;-86
2022/10/27 03:38:22;;;;;;;;;;;;;;;;;;5098621;28;19920;-86
2022/10/27 03:40:48;;;;;;;;;;;;;;;;;;5132044;28;19916;-84
2022/10/27 03:43:13;;;;;;;;;;;;;;;;;;5099942;28;19920;-84
2022/10/27 03:45:39;;;;;;;;;;;;;;;;;;5096930;28;19923;-85
2022/10/27 03:48:05;;;;;;;;;;;;;;;;;;5089588;28;19916;-88
2022/10/27 03:50:31;;;;;;;;;;;;;;;;;;5078445;28;19913;-84
2022/10/27 03:52:57;;;;;;;;;;;;;;;;;;5078517;28;19928;-86
2022/10/27 03:55:23;;;;;;;;;;;;;;;;;;5097827;28;19924;-88
2022/10/27 03:57:48;;;;;;;;;;;;;;;;;;5097136;28;20327;-89
2022/10/27 04:00:14;;;;;;;;;;;;;;;;;;5097798;28;19916;-85
2022/10/27 04:02:39;;;;;;;;;;;;;;;;;;5097140;28;20355;-86
2022/10/27 04:05:05;;;;;;;;;;;;;;;;;;5101624;28;20413;-88
2022/10/27 04:07:30;;;;;;;;;;;;;;;;;;5100921;28;19920;-90
2022/10/27 04:09:56;;;;;;;;;;;;;;;;;;5096172;28;20276;-88
2022/10/27 04:12:21;;;;;;;;;;;;;;;;;;5100441;28;19962;-87
2022/10/27 04:14:49;;;;;;;;;;;;;;;;;;5096237;28;20010;-85
2022/10/27 04:17:15;;;;;;;;;;;;;;;;;;5088293;28;19943;-87
2022/10/27 04:19:40;;;;;;;;;;;;;;;;;;5081792;28;19916;-88
2022/10/27 04:22:06;;;;;;;;;;;;;;;;;;5083705;28;19921;-86
2022/10/27 04:24:31;;;;;;;;;;;;;;;;;;5082058;28;19916;-86
2022/10/27 04:26:56;;;;;;;;;;;;;;;;;;5077053;28;19928;-88
2022/10/27 04:29:22;;;;;;;;;;;;;;;;;;5078470;28;19919;-85
2022/10/27 04:31:47;;;;;;;;;;;;;;;;;;5076725;28;19939;-87
2022/10/27 04:34:13;;;;;;;;;;;;;;;;;;5076767;28;19924;-89
2022/10/27 04:36:38;;;;;;;;;;;;;;;;;;5076895;28;19920;-88
2022/10/27 04:39:03;;;;;;;;;;;;;;;;;;5075455;28;20347;-87
2022/10/27 04:41:29;;;;;;;;;;;;;;;;;;5076699;28;19938;-88
2022/10/27 04:43:55;;;;;;;;;;;;;;;;;;5076600;28;20392;-87
2022/10/27 04:46:20;;;;;;;;;;;;;;;;;;5076700;28;19917;-89
2022/10/27 04:48:46;;;;;;;;;;;;;;;;;;5076557;28;19920;-86
2022/10/27 04:51:11;;;;;;;;;;;;;;;;;;5075301;28;19916;-87
2022/10/27 04:53:37;;;;;;;;;;;;;;;;;;5075220;28;20299;-85
2022/10/27 04:56:02;;;;;;;;;;;;;;;;;;5076421;28;19916;-86
2022/10/27 04:58:28;;;;;;;;;;;;;;;;;;5076335;28;19916;-89
2022/10/27 05:00:53;;;;;;;;;;;;;;;;;;5076261;28;20384;-88
2022/10/27 05:03:19;;;;;;;;;;;;;;;;;;5076581;28;20011;-87
2022/10/27 05:05:44;;;;;;;;;;;;;;;;;;5074885;28;20482;-88
2022/10/27 05:08:13;;;;;;;;;;;;;;;;;;5076493;28;19917;-86
2022/10/27 05:10:38;;;;;;;;;;;;;;;;;;5076121;28;20350;-88
2022/10/27 05:13:04;;;;;;;;;;;;;;;;;;5075989;28;19999;-87
2022/10/27 05:15:29;;;;;;;;;;;;;;;;;;5074331;28;19963;-88
2022/10/27 05:17:55;;;;;;;;;;;;;;;;;;5076092;28;19982;-86
2022/10/27 05:20:21;;;;;;;;;;;;;;;;;;5075926;28;19923;-88
2022/10/27 05:22:46;;;;;;;;;;;;;;;;;;5075847;28;19920;-88
2022/10/27 05:25:12;;;;;;;;;;;;;;;;;;5076008;28;19917;-88
2022/10/27 05:27:37;;;;;;;;;;;;;;;;;;5075819;28;19916;-88
2022/10/27 05:30:03;;;;;;;;;;;;;;;;;;5075709;28;19923;-89
2022/10/27 05:32:29;;;;;;;;;;;;;;;;;;5075299;28;19943;-88
2022/10/27 05:34:54;;;;;;;;;;;;;;;;;;5075654;28;19917;-88
2022/10/27 05:37:20;;;;;;;;;;;;;;;;;;5074301;28;19917;-88
2022/10/27 05:39:45;;;;;;;;;;;;;;;;;;5075644;28;19952;-88
2022/10/27 05:42:11;;;;;;;;;;;;;;;;;;5075633;28;19916;-86
2022/10/27 05:44:36;;;;;;;;;;;;;;;;;;5075391;28;19927;-90
2022/10/27 05:47:01;;;;;;;;;;;;;;;;;;5075592;28;19962;-87
2022/10/27 05:49:27;;;;;;;;;;;;;;;;;;5075535;28;19970;-87
2022/10/27 05:51:52;;;;;;;;;;;;;;;;;;5075177;28;19921;-88
2022/10/27 05:54:18;;;;;;;;;;;;;;;;;;5075491;28;19916;-85
2022/10/27 05:56:44;;;;;;;;;;;;;;;;;;5075231;28;19952;-88
2022/10/27 05:59:10;;;;;;;;;;;;;;;;;;5075080;28;19917;-88
2022/10/27 06:01:35;;;;;;;;;;;;;;;;;;5075164;28;20007;-88
2022/10/27 06:04:01;;;;;;;;;;;;;;;;;;5074957;28;19985;-88
2022/10/27 06:06:26;;;;;;;;;;;;;;;;;;5075071;28;19969;-88
2022/10/27 06:08:52;;;;;;;;;;;;;;;;;;5074935;28;20264;-88
2022/10/27 06:11:17;;;;;;;;;;;;;;;;;;5074927;28;19979;-89
2022/10/27 06:13:43;;;;;;;;;;;;;;;;;;5074935;28;19940;-87
2022/10/27 06:16:08;;;;;;;;;;;;;;;;;;5074877;28;20294;-87
2022/10/27 06:18:33;;;;;;;;;;;;;;;;;;5074811;28;19962;-87
2022/10/27 06:20:59;;;;;;;;;;;;;;;;;;5074758;28;19923;-88
2022/10/27 06:23:24;;;;;;;;;;;;;;;;;;5074622;28;19970;-87
2022/10/27 06:25:50;;;;;;;;;;;;;;;;;;5073724;28;20279;-88
2022/10/27 06:28:15;;;;;;;;;;;;;;;;;;5074601;28;19927;-87
2022/10/27 06:30:42;;;;;;;;;;;;;;;;;;5074219;28;19931;-84
2022/10/27 06:33:07;;;;;;;;;;;;;;;;;;5074550;28;19964;-86
2022/10/27 06:35:33;;;;;;;;;;;;;;;;;;5073225;28;19919;-88
2022/10/27 06:37:58;;;;;;;;;;;;;;;;;;5074406;28;19916;-87
2022/10/27 06:40:24;;;;;;;;;;;;;;;;;;5074380;28;19912;-87
2022/10/27 06:42:50;;;;;;;;;;;;;;;;;;5074324;28;19921;-86
2022/10/27 06:45:18;;;;;;;;;;;;;;;;;;5074186;28;20058;-86
2022/10/27 06:47:44;;;;;;;;;;;;;;;;;;5074194;28;20015;-87
2022/10/27 06:50:09;;;;;;;;;;;;;;;;;;5074151;28;20005;-86
2022/10/27 06:52:36;;;;;;;;;;;;;;;;;;5074242;28;19920;-86
2022/10/27 06:55:01;;;;;;;;;;;;;;;;;;5074115;28;20350;-87
2022/10/27 06:57:26;;;;;;;;;;;;;;;;;;5072911;28;19942;-88
2022/10/27 06:59:52;;;;;;;;;;;;;;;;;;5074256;28;20287;-85
2022/10/27 07:02:17;;;;;;;;;;;;;;;;;;5074022;28;19916;-85
2022/10/27 07:04:43;;;;;;;;;;;;;;;;;;5072653;28;19970;-87
2022/10/27 07:07:08;;;;;;;;;;;;;;;;;;5074327;28;19939;-84
2022/10/27 07:09:34;;;;;;;;;;;;;;;;;;5073977;28;19934;-84
2022/10/27 07:11:59;;;;;;;;;;;;;;;;;;5073966;28;19916;-87
2022/10/27 07:14:24;;;;;;;;;;;;;;;;;;5072556;28;20015;-87
2022/10/27 07:16:50;;;;;;;;;;;;;;;;;;5073940;28;19924;-85
2022/10/27 07:19:15;;;;;;;;;;;;;;;;;;5074311;28;19920;-87
2022/10/27 07:21:41;;;;;;;;;;;;;;;;;;5074108;28;19935;-85
2022/10/27 07:24:06;;;;;;;;;;;;;;;;;;5089739;28;19954;-84
2022/10/27 07:26:32;;;;;;;;;;;;;;;;;;5097368;28;19916;-86
2022/10/27 07:28:57;;;;;;;;;;;;;;;;;;5110359;28;19916;-87
2022/10/27 07:31:22;;;;;;;;;;;;;;;;;;5117417;28;19912;-86
2022/10/27 07:33:48;;;;;;;;;;;;;;;;;;5096570;28;20344;-88
2022/10/27 07:36:13;;;;;;;;;;;;;;;;;;5096024;28;20411;-87
2022/10/27 07:38:39;;;;;;;;;;;;;;;;;;5098220;28;20007;-87
2022/10/27 07:41:04;;;;;;;;;;;;;;;;;;5098268;28;19916;-87
2022/10/27 07:43:30;;;;;;;;;;;;;;;;;;5097998;28;19999;-87
2022/10/27 07:45:55;;;;;;;;;;;;;;;;;;5096544;28;20023;-86
2022/10/27 07:48:21;;;;;;;;;;;;;;;;;;5096631;28;19943;-87
2022/10/27 07:50:46;;;;;;;;;;;;;;;;;;5097902;28;19916;-87
2022/10/27 07:53:14;;;;;;;;;;;;;;;;;;5097884;28;19922;-87
2022/10/27 07:55:39;;;;;;;;;;;;;;;;;;5097853;28;19923;-88
2022/10/27 07:58:06;;;;;;;;;;;;;;;;;;5097622;28;19916;-87
2022/10/27 08:00:32;;;;;;;;;;;;;;;;;;5097738;28;19970;-85
2022/10/27 08:02:58;;;;;;;;;;;;;;;;;;5096278;28;19953;-85
2022/10/27 08:05:23;;;;;;;;;;;;;;;;;;5096210;28;20356;-84
2022/10/27 08:07:49;;;;;;;;;;;;;;;;;;5097771;28;19916;-84
2022/10/27 08:10:14;;;;;;;;;;;;;;;;;;5097583;28;19924;-85
2022/10/27 08:12:43;;;;;;;;;;;;;;;;;;5097445;28;19916;-84
2022/10/27 08:15:09;;;;;;;;;;;;;;;;;;5097277;28;19920;-89
2022/10/27 08:17:34;;;;;;;;;;;;;;;;;;5097335;28;20390;-86
2022/10/27 08:19:59;;;;;;;;;;;;;;;;;;5097387;28;20014;-85
2022/10/27 08:22:25;;;;;;;;;;;;;;;;;;5097249;28;20257;-85
2022/10/27 08:24:50;;;;;;;;;;;;;;;;;;5097144;28;20442;-83
2022/10/27 08:27:16;;;;;;;;;;;;;;;;;;5097268;28;20295;-84
2022/10/27 08:29:41;;;;;;;;;;;;;;;;;;5097187;28;19920;-84
2022/10/27 08:32:08;;;;;;;;;;;;;;;;;;5097134;28;19920;-84
2022/10/27 08:34:34;;;;;;;;;;;;;;;;;;5096975;28;19916;-84
2022/10/27 08:36:59;;;;;;;;;;;;;;;;;;5097000;28;19969;-83
2022/10/27 08:39:24;;;;;;;;;;;;;;;;;;5096984;28;19938;-86
2022/10/27 08:41:55;;;;;;;;;;;;;;;;;;5095610;28;19923;-86
2022/10/27 08:44:23;;;;;;;;;;;;;;;;;;5096849;28;19916;-88
2022/10/27 08:46:50;;;;;;;;;;;;;;;;;;5096674;28;20268;-87
2022/10/27 08:49:18;;;;;;;;;;;;;;;;;;5095952;28;19952;-87
2022/10/27 08:51:46;;;;;;;;;;;;;;;;;;5096748;28;19974;-85
2022/10/27 08:54:11;;;;;;;;;;;;;;;;;;5096693;28;19916;-87
2022/10/27 08:56:40;;;;;;;;;;;;;;;;;;5096573;28;20459;-87
2022/10/27 08:59:12;;;;;;;;;;;;;;;;;;5096624;28;19920;-88
2022/10/27 09:01:40;;;;;;;;;;;;;;;;;;5096519;28;20317;-87
2022/10/27 09:04:05;;;;;;;;;;;;;;;;;;5095135;28;20279;-88
2022/10/27 09:06:42;;;;;;;;;;;;;;;;;;5095165;28;19924;-86
2022/10/27 09:09:37;;;;;;;;;;;;;;;;;;5096409;28;19916;-88
2022/10/27 09:12:09;;;;;;;;;;;;;;;;;;5091412;28;19916;-87
2022/10/27 09:14:46;;;;;;;;;;;;;;;;;;5096397;28;19923;-86
2022/10/27 09:17:15;;;;;;;;;;;;;;;;;;5096341;28;19974;-87
2022/10/27 09:19:45;;;;;;;;;;;;;;;;;;5096172;28;19920;-87
2022/10/27 09:22:18;;;;;;;;;;;;;;;;;;5096198;28;19916;-87
2022/10/27 09:24:45;;;;;;;;;;;;;;;;;;5096085;28;20069;-87
2022/10/27 09:27:12;;;;;;;;;;;;;;;;;;5096458;28;19916;-87
2022/10/27 09:29:38;;;;;;;;;;;;;;;;;;5096053;28;19920;-86
2022/10/27 09:32:03;;;;;;;;;;;;;;;;;;5095838;28;20333;-85
2022/10/27 09:34:40;;;;;;;;;;;;;;;;;;5095895;28;20375;-87
2022/10/27 09:37:13;;;;;;;;;;;;;;;;;;5095989;28;19922;-87
2022/10/27 09:39:41;;;;;;;;;;;;;;;;;;5095732;28;19923;-86
2022/10/27 09:42:06;;;;;;;;;;;;;;;;;;5096044;28;19966;-87
2022/10/27 09:44:33;;;;;;;;;;;;;;;;;;5095727;28;20351;-87
2022/10/27 09:46:58;;;;;;;;;;;;;;;;;;5095740;28;19916;-87
2022/10/27 09:49:31;;;;;;;;;;;;;;;;;;5094357;28;19922;-86
2022/10/27 09:52:02;;;;;;;;;;;;;;;;;;5095552;28;19973;-87
2022/10/27 09:54:29;;;;;;;;;;;;;;;;;;5095586;28;20322;-85
2022/10/27 09:57:01;;;;;;;;;;;;;;;;;;5095458;28;19939;-86
2022/10/27 09:59:27;;;;;;;;;;;;;;;;;;5095464;28;19920;-87
2022/10/27 10:01:58;;;;;;;;;;;;;;;;;;5095428;28;20272;-86
2022/10/27 10:04:35;;;;;;;;;;;;;;;;;;5095323;28;19916;-87
2022/10/27 10:07:02;;;;;;;;;;;;;;;;;;5095348;28;20394;-88
2022/10/27 10:09:32;;;;;;;;;;;;;;;;;;5095106;28;19924;-86
2022/10/27 10:12:15;;;;;;;;;;;;;;;;;;5095083;28;19923;-84
2022/10/27 10:14:41;;;;;;;;;;;;;;;;;;5095465;28;20508;-87
2022/10/27 10:17:17;;;;;;;;;;;;;;;;;;5095027;28;19916;-86
2022/10/27 10:19:45;;;;;;;;;;;;;;;;;;5095031;28;20368;-86
2022/10/27 10:22:16;;;;;;;;;;;;;;;;;;5095188;28;19923;-87
2022/10/27 10:24:45;;;;;;;;;;;;;;;;;;5094959;28;20473;-88
2022/10/27 10:27:21;;;;;;;;;;;;;;;;;;5095270;28;19942;-88
2022/10/27 10:29:48;;;;;;;;;;;;;;;;;;5095049;28;19922;-85
2022/10/27 10:32:18;;;;;;;;;;;;;;;;;;5094578;28;19973;-87
2022/10/27 10:34:44;;;;;;;;;;;;;;;;;;5094773;28;19970;-89
2022/10/27 10:37:28;;;;;;;;;;;;;;;;;;5093446;28;20321;-87
2022/10/27 10:39:53;;;;;;;;;;;;;;;;;;5094954;28;19940;-87
2022/10/27 10:42:19;;;;;;;;;;;;;;;;;;5094697;28;19924;-88
2022/10/27 10:44:44;;;;;;;;;;;;;;;;;;5094699;28;19974;-86
2022/10/27 10:47:25;;;;;;;;;;;;;;;;;;5094580;28;19935;-86
2022/10/27 10:49:52;;;;;;;;;;;;;;;;;;5093311;28;19912;-86
2022/10/27 10:52:19;;;;;;;;;;;;;;;;;;5094385;28;19941;-85
2022/10/27 10:54:45;;;;;;;;;;;;;;;;;;5094457;28;20006;-86
2022/10/27 10:57:44;;;;;;;;;;;;;;;;;;5094518;28;20393;-86
2022/10/27 11:00:16;;;;;;;;;;;;;;;;;;5090288;28;19916;-88
2022/10/27 11:02:49;;;;;;;;;;;;;;;;;;5094290;28;19920;-86
2022/10/27 11:05:19;;;;;;;;;;;;;;;;;;5094374;28;19916;-86
2022/10/27 11:07:46;;;;;;;;;;;;;;;;;;5094261;28;19916;-86
2022/10/27 11:10:14;;;;;;;;;;;;;;;;;;5094411;28;19916;-86
2022/10/27 11:12:43;;;;;;;;;;;;;;;;;;5093837;28;19939;-86
2022/10/27 11:15:24;;;;;;;;;;;;;;;;;;5094322;28;20481;-86
2022/10/27 11:17:50;;;;;;;;;;;;;;;;;;5102045;28;19922;-85
2022/10/27 11:20:36;;;;;;;;;;;;;;;;;;5105524;28;19959;-86
2022/10/27 11:23:12;;;;;;;;;;;;;;;;;;5097840;28;19916;-86
2022/10/27 11:25:38;;;;;;;;;;;;;;;;;;5096801;28;19975;-85
2022/10/27 11:28:10;;;;;;;;;;;;;;;;;;5098802;28;19962;-87
2022/10/27 11:30:37;;;;;;;;;;;;;;;;;;5096867;28;19920;-85
2022/10/27 11:33:41;;;;;;;;;;;;;;;;;;5094108;28;19924;-86
2022/10/27 11:36:10;;;;;;;;;;;;;;;;;;5071823;28;19969;-87
2022/10/27 11:38:54;;;;;;;;;;;;;;;;;;5071637;28;19963;-84
2022/10/27 11:41:25;;;;;;;;;;;;;;;;;;5076425;28;19916;-85
2022/10/27 11:43:58;;;;;;;;;;;;;;;;;;5093942;28;19935;-86
2022/10/27 11:46:26;;;;;;;;;;;;;;;;;;5093789;28;20367;-85
2022/10/27 11:48:55;;;;;;;;;;;;;;;;;;5093913;28;19952;-85
2022/10/27 11:51:23;;;;;;;;;;;;;;;;;;5093845;28;20003;-85
2022/10/27 11:53:50;;;;;;;;;;;;;;;;;;5093910;28;19916;-86
2022/10/27 11:56:30;;;;;;;;;;;;;;;;;;5093792;28;19924;-86
2022/10/27 11:58:55;;;;;;;;;;;;;;;;;;5093676;28;19924;-84
2022/10/27 12:01:29;;;;;;;;;;;;;;;;;;5093760;28;19916;-85
2022/10/27 12:04:04;;;;;;;;;;;;;;;;;;5093752;28;19923;-84
2022/10/27 12:06:35;;;;;;;;;;;;;;;;;;5092299;28;19916;-86
2022/10/27 12:09:05;;;;;;;;;;;;;;;;;;5093685;28;19966;-86
2022/10/27 12:12:02;;;;;;;;;;;;;;;;;;5093587;28;19916;-87
2022/10/27 12:14:48;;;;;;;;;;;;;;;;;;5081326;28;20003;-89
2022/10/27 12:17:22;;;;;;;;;;;;;;;;;;5082255;28;19916;-86
2022/10/27 12:19:49;;;;;;;;;;;;;;;;;;5093621;28;19916;-86
2022/10/27 12:22:50;;;;;;;;;;;;;;;;;;5093549;28;19923;-87
2022/10/27 12:25:27;;;;;;;;;;;;;;;;;;5074068;28;19979;-87
2022/10/27 12:27:57;;;;;;;;;;;;;;;;;;5074948;28;19967;-85
2022/10/27 12:30:23;;;;;;;;;;;;;;;;;;5073513;28;19912;-86
2022/10/27 12:33:08;;;;;;;;;;;;;;;;;;5054843;28;19924;-85
2022/10/27 12:35:45;;;;;;;;;;;;;;;;;;5037957;28;20419;-88
2022/10/27 12:38:14;;;;;;;;;;;;;;;;;;5037966;28;20015;-87
2022/10/27 12:40:49;;;;;;;;;;;;;;;;;;5054479;28;19917;-87
2022/10/27 12:43:20;;;;;;;;;;;;;;;;;;5054583;28;20139;-87
2022/10/27 12:45:48;;;;;;;;;;;;;;;;;;5054552;28;20011;-86
2022/10/27 12:48:27;;;;;;;;;;;;;;;;;;5054451;28;19928;-87
2022/10/27 12:50:52;;;;;;;;;;;;;;;;;;5037726;28;19913;-86
2022/10/27 12:53:37;;;;;;;;;;;;;;;;;;5054705;28;20384;-85
2022/10/27 12:56:29;;;;;;;;;;;;;;;;;;5054604;28;19920;-87
2022/10/27 12:59:00;;;;;;;;;;;;;;;;;;5025331;28;19917;-87
2022/10/27 13:01:37;;;;;;;;;;;;;;;;;;5056437;28;20376;-87
2022/10/27 13:04:22;;;;;;;;;;;;;;;;;;5056262;28;19982;-86
2022/10/27 13:07:02;;;;;;;;;;;;;;;;;;5054953;28;19917;-87
2022/10/27 13:09:39;;;;;;;;;;;;;;;;;;5056092;28;19921;-87
2022/10/27 13:12:23;;;;;;;;;;;;;;;;;;5056041;28;20414;-87
2022/10/27 13:14:56;;;;;;;;;;;;;;;;;;5056099;28;19917;-85
2022/10/27 13:17:47;;;;;;;;;;;;;;;;;;5056210;28;19963;-86
2022/10/27 13:20:25;;;;;;;;;;;;;;;;;;5047260;28;20378;-86
2022/10/27 13:22:52;;;;;;;;;;;;;;;;;;5055851;28;19916;-87
2022/10/27 13:25:28;;;;;;;;;;;;;;;;;;5055806;28;19917;-86
2022/10/27 13:28:02;;;;;;;;;;;;;;;;;;5054623;28;19940;-86
2022/10/27 13:30:29;;;;;;;;;;;;;;;;;;5058114;28;20007;-85
2022/10/27 13:32:55;;;;;;;;;;;;;;;;;;5096300;28;20325;-85
2022/10/27 13:35:31;;;;;;;;;;;;;;;;;;5095587;28;19912;-86
2022/10/27 13:37:58;;;;;;;;;;;;;;;;;;5095734;28;19965;-86
2022/10/27 13:40:28;;;;;;;;;;;;;;;;;;5094469;28;19934;-87
2022/10/27 13:43:17;;;;;;;;;;;;;;;;;;5095822;28;19916;-87
2022/10/27 13:45:42;;;;;;;;;;;;;;;;;;5095514;28;19931;-86
2022/10/27 13:48:12;;;;;;;;;;;;;;;;;;5095659;28;19916;-85
2022/10/27 13:50:41;;;;;;;;;;;;;;;;;;5095567;28;19912;-86
2022/10/27 13:53:19;;;;;;;;;;;;;;;;;;5095533;28;19927;-85
2022/10/27 13:56:20;;;;;;;;;;;;;;;;;;5094094;28;20341;-87
2022/10/27 13:58:58;;;;;;;;;;;;;;;;;;5073134;28;20334;-86
2022/10/27 14:01:24;;;;;;;;;;;;;;;;;;5092536;28;19955;-84
2022/10/27 14:03:49;;;;;;;;;;;;;;;;;;5095464;28;19920;-88
2022/10/27 14:06:15;;;;;;;;;;;;;;;;;;5095192;28;19916;-86
2022/10/27 14:08:43;;;;;;;;;;;;;;;;;;5095271;28;19958;-85
2022/10/27 14:11:10;;;;;;;;;;;;;;;;;;5095236;28;19923;-84
2022/10/27 14:13:41;;;;;;;;;;;;;;;;;;5095136;28;20072;-85
2022/10/27 14:16:07;;;;;;;;;;;;;;;;;;5095066;28;19923;-85
2022/10/27 14:18:36;;;;;;;;;;;;;;;;;;5095018;28;19916;-88
2022/10/27 14:21:17;;;;;;;;;;;;;;;;;;5095199;28;19917;-84
2022/10/27 14:23:42;;;;;;;;;;;;;;;;;;5094972;28;19916;-86
2022/10/27 14:26:20;;;;;;;;;;;;;;;;;;5094880;28;20424;-86
2022/10/27 14:28:46;;;;;;;;;;;;;;;;;;5094899;28;20298;-86
2022/10/27 14:31:17;;;;;;;;;;;;;;;;;;5094666;28;19926;-84
2022/10/27 14:33:43;;;;;;;;;;;;;;;;;;5094843;28;20367;-86
2022/10/27 14:36:15;;;;;;;;;;;;;;;;;;5094750;28;19916;-86
2022/10/27 14:38:44;;;;;;;;;;;;;;;;;;5094612;28;19922;-86
2022/10/27 14:41:17;;;;;;;;;;;;;;;;;;5094752;28;20359;-85
2022/10/27 14:43:53;;;;;;;;;;;;;;;;;;5093320;28;19982;-87
2022/10/27 14:46:22;;;;;;;;;;;;;;;;;;5092659;28;19939;-86
2022/10/27 14:48:58;;;;;;;;;;;;;;;;;;5093120;28;19938;-86
2022/10/27 14:51:24;;;;;;;;;;;;;;;;;;5094492;28;19916;-86
2022/10/27 14:53:51;;;;;;;;;;;;;;;;;;5094438;28;20409;-85
2022/10/27 14:56:18;;;;;;;;;;;;;;;;;;5094377;28;19920;-86
2022/10/27 14:58:51;;;;;;;;;;;;;;;;;;5093019;28;19917;-86
2022/10/27 15:01:19;;;;;;;;;;;;;;;;;;5094317;28;19952;-87
2022/10/27 15:03:44;;;;;;;;;;;;;;;;;;5093229;28;19970;-87
2022/10/27 15:06:16;;;;;;;;;;;;;;;;;;5093444;28;20213;-87
2022/10/27 15:08:43;;;;;;;;;;;;;;;;;;5094183;28;19920;-86
2022/10/27 15:11:14;;;;;;;;;;;;;;;;;;5094261;28;20003;-86
2022/10/27 15:13:42;;;;;;;;;;;;;;;;;;5092975;28;19920;-85
2022/10/27 15:16:10;;;;;;;;;;;;;;;;;;5094200;28;19928;-86
2022/10/27 15:18:38;;;;;;;;;;;;;;;;;;5094101;28;20007;-88
2022/10/27 15:21:14;;;;;;;;;;;;;;;;;;5094330;28;19939;-86
2022/10/27 15:23:41;;;;;;;;;;;;;;;;;;5094919;28;19962;-87
2022/10/27 15:26:14;;;;;;;;;;;;;;;;;;5094062;28;19977;-86
2022/10/27 15:28:40;;;;;;;;;;;;;;;;;;5092915;28;19916;-83
2022/10/27 15:31:07;;;;;;;;;;;;;;;;;;5104203;28;19915;-86
2022/10/27 15:33:37;;;;;;;;;;;;;;;;;;5088381;28;19907;-84
2022/10/27 15:36:15;;;;;;;;;;;;;;;;;;5112434;28;19912;-85
2022/10/27 15:38:42;;;;;;;;;;;;;;;;;;5109269;28;19944;-87
2022/10/27 15:41:12;;;;;;;;;;;;;;;;;;5101581;28;20015;-87
2022/10/27 15:43:39;;;;;;;;;;;;;;;;;;5092275;28;19927;-85
2022/10/27 15:46:07;;;;;;;;;;;;;;;;;;5090955;28;19929;-86
2022/10/27 15:48:35;;;;;;;;;;;;;;;;;;5092375;28;19920;-87
2022/10/27 15:51:07;;;;;;;;;;;;;;;;;;5091672;28;19921;-87
2022/10/27 15:53:47;;;;;;;;;;;;;;;;;;5092710;28;19923;-86
2022/10/27 15:56:32;;;;;;;;;;;;;;;;;;5090267;28;19942;-86
2022/10/27 15:59:12;;;;;;;;;;;;;;;;;;5093326;28;19932;-88
2022/10/27 16:01:38;;;;;;;;;;;;;;;;;;5095307;28;19920;-87
2022/10/27 16:04:18;;;;;;;;;;;;;;;;;;5095379;28;20272;-87
2022/10/27 16:06:43;;;;;;;;;;;;;;;;;;5094621;28;19921;-85
2022/10/27 16:09:10;;;;;;;;;;;;;;;;;;5096298;28;19923;-86
2022/10/27 16:11:38;;;;;;;;;;;;;;;;;;5093454;28;19916;-85
2022/10/27 16:14:05;;;;;;;;;;;;;;;;;;5096134;28;20292;-85
2022/10/27 16:16:35;;;;;;;;;;;;;;;;;;5096131;28;19923;-85
2022/10/27 16:19:01;;;;;;;;;;;;;;;;;;5095346;28;19924;-87
2022/10/27 16:21:28;;;;;;;;;;;;;;;;;;5091741;28;19917;-86
2022/10/27 16:23:55;;;;;;;;;;;;;;;;;;5095860;28;19924;-88
2022/10/27 16:26:24;;;;;;;;;;;;;;;;;;5095722;28;19963;-86
2022/10/27 16:28:50;;;;;;;;;;;;;;;;;;5095102;28;20456;-86
2022/10/27 16:31:16;;;;;;;;;;;;;;;;;;5096432;28;19924;-87
2022/10/27 16:33:42;;;;;;;;;;;;;;;;;;5095327;28;19931;-87
2022/10/27 16:36:12;;;;;;;;;;;;;;;;;;5095717;28;19974;-87
2022/10/27 16:38:37;;;;;;;;;;;;;;;;;;5095538;28;19924;-87
2022/10/27 16:41:02;;;;;;;;;;;;;;;;;;5095496;28;19927;-87
2022/10/27 16:43:31;;;;;;;;;;;;;;;;;;5095264;28;20015;-88
2022/10/27 16:45:57;;;;;;;;;;;;;;;;;;5093374;28;20422;-88
2022/10/27 16:48:22;;;;;;;;;;;;;;;;;;5095606;28;19928;-87
2022/10/27 16:50:47;;;;;;;;;;;;;;;;;;5096714;28;19917;-86
2022/10/27 16:53:18;;;;;;;;;;;;;;;;;;5095586;28;19917;-88
2022/10/27 16:55:44;;;;;;;;;;;;;;;;;;5095512;28;19916;-85
2022/10/27 16:58:12;;;;;;;;;;;;;;;;;;5096931;28;19916;-87